Time;durP1;ratioP1;P1;durP2;ratioP2;P2;SDS_P1;SDS_P2;PMS_P1;PMS_P2;Temp;Humidity;BMP_temperature;BMP_pressure;BME280_temperature;BME280_humidity;BME280_pressure;Samples;Min_cycle;Max_cycle;Signal;HPM_P1;HPM_P2
2021/11/30 00:01:58;;;;;;;;;;;4.20;99.90;;;;;;4973175;28;19918;-80
2021/11/30 00:04:28;;;;;;;;;;;4.20;99.90;;;;;;4966527;28;20005;-80
2021/11/30 00:06:54;;;;;;;;;;;4.20;99.90;;;;;;4974283;28;19969;-80
2021/11/30 00:11:48;;;;;;;;;;;4.10;99.90;;;;;;4958754;28;19915;-80
2021/11/30 00:14:14;;;;;;;;;;;4.10;99.90;;;;;;4972614;28;19921;-81
2021/11/30 00:16:39;;;;;;;;;;;4.10;99.90;;;;;;4967722;28;19918;-80
2021/11/30 00:19:04;;;;;;;;;;;4.10;99.90;;;;;;4968743;28;19918;-81
2021/11/30 00:21:30;;;;;;;;;;;4.10;99.90;;;;;;4975734;28;19949;-81
2021/11/30 00:23:55;;;;;;;;;;;4.10;99.90;;;;;;4976799;28;19918;-81
2021/11/30 00:26:21;;;;;;;;;;;4.10;99.90;;;;;;4972598;28;20035;-79
2021/11/30 00:28:46;;;;;;;;;;;4.10;99.90;;;;;;4978396;28;19918;-80
2021/11/30 00:31:12;;;;;;;;;;;4.10;99.90;;;;;;4991875;28;20005;-80
2021/11/30 00:33:38;;;;;;;;;;;4.10;99.90;;;;;;4966886;28;19914;-80
2021/11/30 00:36:03;;;;;;;;;;;4.10;99.90;;;;;;4965735;28;19914;-80
2021/11/30 00:38:30;;;;;;;;;;;4.10;99.90;;;;;;4972258;28;20290;-80
2021/11/30 00:40:56;;;;;;;;;;;4.10;92.40;;;;;;4970518;28;19914;-80
2021/11/30 00:43:24;;;;;;;;;;;4.10;1.00;;;;;;4965728;28;19914;-80
2021/11/30 00:45:56;;;;;;;;;;;4.10;1.00;;;;;;4973228;28;19918;-80
2021/11/30 00:48:23;;;;;;;;;;;4.10;1.00;;;;;;4977931;28;19925;-79
2021/11/30 00:50:51;;;;;;;;;;;4.10;1.00;;;;;;4971039;28;19914;-80
2021/11/30 00:53:16;;;;;;;;;;;4.10;1.00;;;;;;4967336;28;19957;-79
2021/11/30 00:55:42;;;;;;;;;;;4.10;1.00;;;;;;4990358;28;20329;-80
2021/11/30 00:58:07;;;;;;;;;;;4.10;99.90;;;;;;4976038;28;19925;-79
2021/11/30 01:00:35;;;;;;;;;;;4.10;99.90;;;;;;4980787;28;19914;-81
2021/11/30 01:03:04;;;;;;;;;;;4.10;99.90;;;;;;4968359;28;19921;-80
2021/11/30 01:05:30;;;;;;;;;;;4.20;1.00;;;;;;4989155;28;19966;-81
2021/11/30 01:07:55;;;;;;;;;;;4.10;1.00;;;;;;4991379;28;20290;-80
2021/11/30 01:10:21;;;;;;;;;;;4.20;1.00;;;;;;4964712;28;19914;-79
2021/11/30 01:12:46;;;;;;;;;;;4.20;1.00;;;;;;4985209;28;19973;-80
2021/11/30 01:15:13;;;;;;;;;;;4.20;1.00;;;;;;4970544;28;20769;-80
2021/11/30 01:17:39;;;;;;;;;;;4.20;99.90;;;;;;4978441;28;20349;-80
2021/11/30 01:20:05;;;;;;;;;;;4.20;99.90;;;;;;4966293;28;19914;-80
2021/11/30 01:22:30;;;;;;;;;;;4.20;99.90;;;;;;4963145;28;19915;-81
2021/11/30 01:24:56;;;;;;;;;;;4.30;1.00;;;;;;4963401;28;19918;-80
2021/11/30 01:27:21;;;;;;;;;;;4.30;1.00;;;;;;4962843;28;20051;-80
2021/11/30 01:29:47;;;;;;;;;;;4.30;1.00;;;;;;4973158;28;20004;-80
2021/11/30 01:32:12;;;;;;;;;;;4.30;1.00;;;;;;4977792;28;19945;-81
2021/11/30 01:34:38;;;;;;;;;;;4.30;99.90;;;;;;4972797;28;19922;-80
2021/11/30 01:37:04;;;;;;;;;;;4.30;99.90;;;;;;4987680;28;19915;-80
2021/11/30 01:39:30;;;;;;;;;;;4.30;99.90;;;;;;4968452;28;19918;-81
2021/11/30 01:41:57;;;;;;;;;;;4.30;99.90;;;;;;4975652;28;19918;-80
2021/11/30 01:44:39;;;;;;;;;;;4.30;99.90;;;;;;4973920;28;19914;-80
2021/11/30 01:47:12;;;;;;;;;;;4.40;99.90;;;;;;4983910;28;19914;-80
2021/11/30 01:49:38;;;;;;;;;;;4.40;99.90;;;;;;4971170;28;19914;-80
2021/11/30 01:52:05;;;;;;;;;;;4.40;99.90;;;;;;4959691;28;19922;-80
2021/11/30 01:54:31;;;;;;;;;;;4.40;99.90;;;;;;4964997;28;19918;-80
2021/11/30 01:56:57;;;;;;;;;;;4.40;99.90;;;;;;4973857;28;20074;-80
2021/11/30 01:59:23;;;;;;;;;;;4.40;99.90;;;;;;4989293;28;19910;-80
2021/11/30 02:01:49;;;;;;;;;;;4.40;99.90;;;;;;4963184;28;20034;-80
2021/11/30 02:04:14;;;;;;;;;;;4.40;99.90;;;;;;4974317;28;19940;-80
2021/11/30 02:06:40;;;;;;;;;;;4.40;1.00;;;;;;4971741;28;19917;-80
2021/11/30 02:09:06;;;;;;;;;;;4.40;1.00;;;;;;4975096;28;19925;-80
2021/11/30 02:11:31;;;;;;;;;;;4.50;99.90;;;;;;4965579;28;20001;-80
2021/11/30 02:13:57;;;;;;;;;;;4.50;1.00;;;;;;4970319;28;19974;-80
2021/11/30 02:16:23;;;;;;;;;;;4.50;1.00;;;;;;4970675;28;19910;-81
2021/11/30 02:18:50;;;;;;;;;;;4.50;1.00;;;;;;4968708;28;19982;-80
2021/11/30 02:21:17;;;;;;;;;;;4.50;1.00;;;;;;4977372;28;20095;-80
2021/11/30 02:23:53;;;;;;;;;;;4.50;99.90;;;;;;4975070;28;19914;-80
2021/11/30 02:26:18;;;;;;;;;;;4.50;99.90;;;;;;4976543;28;20386;-80
2021/11/30 02:28:45;;;;;;;;;;;4.50;99.90;;;;;;4972571;28;19942;-80
2021/11/30 02:31:12;;;;;;;;;;;4.50;1.00;;;;;;4973306;28;19914;-80
2021/11/30 02:33:38;;;;;;;;;;;4.40;66.80;;;;;;4971786;28;19911;-79
2021/11/30 02:36:14;;;;;;;;;;;4.40;99.90;;;;;;4974582;28;19921;-81
2021/11/30 02:38:40;;;;;;;;;;;4.40;1.00;;;;;;4974917;28;20002;-81
2021/11/30 02:41:05;;;;;;;;;;;4.40;99.90;;;;;;4977072;28;19956;-81
2021/11/30 02:43:31;;;;;;;;;;;4.30;99.90;;;;;;4988960;28;20290;-80
2021/11/30 02:45:56;;;;;;;;;;;4.30;99.90;;;;;;4968711;28;19910;-80
2021/11/30 02:48:22;;;;;;;;;;;4.30;99.90;;;;;;4968974;28;19918;-81
2021/11/30 02:50:48;;;;;;;;;;;4.20;1.00;;;;;;4973721;28;19910;-80
2021/11/30 02:53:20;;;;;;;;;;;4.20;1.00;;;;;;4976412;28;19919;-80
2021/11/30 02:55:46;;;;;;;;;;;4.20;1.00;;;;;;4976256;28;19918;-81
2021/11/30 02:58:12;;;;;;;;;;;4.10;1.00;;;;;;4971224;28;19921;-80
2021/11/30 03:00:37;;;;;;;;;;;4.10;1.00;;;;;;4970129;28;19910;-81
2021/11/30 03:03:03;;;;;;;;;;;4.00;1.00;;;;;;4970519;28;19918;-80
2021/11/30 03:05:28;;;;;;;;;;;4.00;1.00;;;;;;4965881;28;19914;-80
2021/11/30 03:07:54;;;;;;;;;;;3.90;1.00;;;;;;4965606;28;20258;-80
2021/11/30 03:10:19;;;;;;;;;;;3.90;1.00;;;;;;4974337;28;20017;-80
2021/11/30 03:12:46;;;;;;;;;;;3.90;1.00;;;;;;4974742;28;20012;-79
2021/11/30 03:15:13;;;;;;;;;;;3.90;1.00;;;;;;4973465;28;19914;-80
2021/11/30 03:17:38;;;;;;;;;;;3.90;1.00;;;;;;4974714;28;19918;-80
2021/11/30 03:20:04;;;;;;;;;;;3.80;1.00;;;;;;4973022;28;20294;-80
2021/11/30 03:22:30;;;;;;;;;;;3.90;1.00;;;;;;4968185;28;19915;-79
2021/11/30 03:24:55;;;;;;;;;;;3.90;1.00;;;;;;4972258;28;19914;-80
2021/11/30 03:27:21;;;;;;;;;;;3.80;1.00;;;;;;4970078;28;20056;-79
2021/11/30 03:29:47;;;;;;;;;;;3.90;1.00;;;;;;4969753;28;19914;-78
2021/11/30 03:33:58;;;;;;;;;;;3.90;1.00;;;;;;4974270;28;20267;-79
2021/11/30 03:34:57;;;;;;;;;;;3.90;1.00;;;;;;4968845;28;19938;-79
2021/11/30 03:37:23;;;;;;;;;;;3.90;1.00;;;;;;4970311;28;20379;-80
2021/11/30 03:39:48;;;;;;;;;;;3.90;1.00;;;;;;4971322;28;19922;-79
2021/11/30 03:42:14;;;;;;;;;;;3.90;1.00;;;;;;4978193;28;19981;-79
2021/11/30 03:44:39;;;;;;;;;;;3.90;1.00;;;;;;4975899;28;19914;-78
2021/11/30 03:47:05;;;;;;;;;;;3.90;1.00;;;;;;4973021;28;19914;-79
2021/11/30 03:49:30;;;;;;;;;;;3.90;1.00;;;;;;4966575;28;20005;-79
2021/11/30 03:51:56;;;;;;;;;;;3.90;1.00;;;;;;4972847;28;19914;-79
2021/11/30 03:54:22;;;;;;;;;;;4.00;1.00;;;;;;4967927;28;19959;-78
2021/11/30 03:56:48;;;;;;;;;;;4.00;1.00;;;;;;4975263;28;20397;-79
2021/11/30 03:59:13;;;;;;;;;;;4.00;1.00;;;;;;4971240;28;19933;-80
2021/11/30 04:01:40;;;;;;;;;;;4.10;1.00;;;;;;4972374;28;19922;-79
2021/11/30 04:04:19;;;;;;;;;;;4.10;1.00;;;;;;4973270;28;19914;-80
2021/11/30 04:06:44;;;;;;;;;;;4.10;1.00;;;;;;4966576;28;19921;-80
2021/11/30 04:09:10;;;;;;;;;;;4.20;1.00;;;;;;4967158;28;19922;-80
2021/11/30 04:11:35;;;;;;;;;;;4.20;1.00;;;;;;4971797;28;19954;-79
2021/11/30 04:14:01;;;;;;;;;;;4.20;1.00;;;;;;4984089;28;19914;-79
2021/11/30 04:16:26;;;;;;;;;;;4.20;1.00;;;;;;4983588;28;19914;-80
2021/11/30 04:18:52;;;;;;;;;;;4.20;1.00;;;;;;4964839;28;19983;-80
2021/11/30 04:21:17;;;;;;;;;;;4.20;1.00;;;;;;4974817;28;20322;-79
2021/11/30 04:23:42;;;;;;;;;;;4.20;1.00;;;;;;4972151;28;19942;-79
2021/11/30 04:26:08;;;;;;;;;;;4.30;1.00;;;;;;4969658;28;19922;-79
2021/11/30 04:28:34;;;;;;;;;;;4.30;1.00;;;;;;4967871;28;19950;-78
2021/11/30 04:30:59;;;;;;;;;;;4.30;1.00;;;;;;4963355;28;20294;-79
2021/11/30 04:33:25;;;;;;;;;;;4.40;1.00;;;;;;4968776;28;19918;-78
2021/11/30 04:35:50;;;;;;;;;;;4.40;1.90;;;;;;4971543;28;19921;-79
2021/11/30 04:38:16;;;;;;;;;;;4.50;5.50;;;;;;4985473;28;19918;-78
2021/11/30 04:40:41;;;;;;;;;;;4.50;6.80;;;;;;4984150;28;19914;-78
2021/11/30 04:43:08;;;;;;;;;;;4.50;7.90;;;;;;4971637;28;19973;-78
2021/11/30 04:48:30;;;;;;;;;;;4.60;11.40;;;;;;4951629;28;20521;-78
2021/11/30 04:50:57;;;;;;;;;;;4.60;13.80;;;;;;4970019;28;20009;-79
2021/11/30 04:53:25;;;;;;;;;;;4.60;15.30;;;;;;4969805;28;20230;-78
2021/11/30 04:55:52;;;;;;;;;;;4.70;16.80;;;;;;4968738;28;20342;-78
2021/11/30 04:58:18;;;;;;;;;;;4.70;17.50;;;;;;4965868;28;19914;-78
2021/11/30 05:00:44;;;;;;;;;;;4.70;19.10;;;;;;4973168;28;19937;-79
2021/11/30 05:03:09;;;;;;;;;;;4.80;20.30;;;;;;4981600;28;19918;-78
2021/11/30 05:05:35;;;;;;;;;;;4.80;20.80;;;;;;4955877;28;19958;-78
2021/11/30 05:08:00;;;;;;;;;;;4.80;21.60;;;;;;4970173;28;19918;-78
2021/11/30 05:10:26;;;;;;;;;;;4.80;23.10;;;;;;4967233;28;19914;-78
2021/11/30 05:12:51;;;;;;;;;;;4.90;23.70;;;;;;4958630;28;20013;-78
2021/11/30 05:15:17;;;;;;;;;;;4.90;24.00;;;;;;4964663;28;19910;-79
2021/11/30 05:17:42;;;;;;;;;;;4.90;24.10;;;;;;4970232;28;19914;-78
2021/11/30 05:20:09;;;;;;;;;;;5.00;24.80;;;;;;4972743;28;19933;-78
2021/11/30 05:22:34;;;;;;;;;;;5.00;25.20;;;;;;4966685;28;20246;-79
2021/11/30 05:25:00;;;;;;;;;;;5.00;25.90;;;;;;4962635;28;20505;-78
2021/11/30 05:27:27;;;;;;;;;;;5.00;26.20;;;;;;4964687;28;19929;-78
2021/11/30 05:29:52;;;;;;;;;;;5.10;26.60;;;;;;4970803;28;19914;-78
2021/11/30 05:32:19;;;;;;;;;;;5.10;26.80;;;;;;4967942;28;19921;-78
2021/11/30 05:34:45;;;;;;;;;;;5.10;26.80;;;;;;4967457;28;19914;-78
2021/11/30 05:37:10;;;;;;;;;;;5.20;26.80;;;;;;4975425;28;20080;-78
2021/11/30 05:39:36;;;;;;;;;;;5.20;26.50;;;;;;4969917;28;20016;-78
2021/11/30 05:42:01;;;;;;;;;;;5.20;25.90;;;;;;4965932;28;19949;-78
2021/11/30 05:44:27;;;;;;;;;;;5.30;25.80;;;;;;4972405;28;20001;-78
2021/11/30 05:46:52;;;;;;;;;;;5.30;25.30;;;;;;4967642;28;19927;-78
2021/11/30 05:49:18;;;;;;;;;;;5.30;24.20;;;;;;4971929;28;19919;-78
2021/11/30 05:51:43;;;;;;;;;;;5.40;22.70;;;;;;4970170;28;20346;-78
2021/11/30 05:54:09;;;;;;;;;;;5.40;21.80;;;;;;4975874;28;19915;-77
2021/11/30 05:56:34;;;;;;;;;;;5.40;21.20;;;;;;4975336;28;19910;-79
2021/11/30 05:59:00;;;;;;;;;;;5.40;20.80;;;;;;4973375;28;20001;-78
2021/11/30 06:01:32;;;;;;;;;;;5.40;20.60;;;;;;4975465;28;19910;-78
2021/11/30 06:03:58;;;;;;;;;;;5.40;20.80;;;;;;4974703;28;19914;-78
2021/11/30 06:06:25;;;;;;;;;;;5.50;20.90;;;;;;4976274;28;19984;-77
2021/11/30 06:08:50;;;;;;;;;;;5.50;21.40;;;;;;4976006;28;20009;-78
2021/11/30 06:11:17;;;;;;;;;;;5.50;21.10;;;;;;4976742;28;19976;-77
2021/11/30 06:13:42;;;;;;;;;;;5.50;21.50;;;;;;4975835;28;20349;-78
2021/11/30 06:16:08;;;;;;;;;;;5.60;21.30;;;;;;4970966;28;20002;-78
2021/11/30 06:18:33;;;;;;;;;;;5.60;21.80;;;;;;4962328;28;19910;-78
2021/11/30 06:20:59;;;;;;;;;;;5.60;22.50;;;;;;4968898;28;19918;-78
2021/11/30 06:23:24;;;;;;;;;;;5.60;23.40;;;;;;4975877;28;20431;-78
2021/11/30 06:25:50;;;;;;;;;;;5.70;23.60;;;;;;4976459;28;19910;-80
2021/11/30 06:28:17;;;;;;;;;;;5.70;23.70;;;;;;4976307;28;19918;-79
2021/11/30 06:30:42;;;;;;;;;;;5.70;24.20;;;;;;4966241;28;20400;-79
2021/11/30 06:33:08;;;;;;;;;;;5.80;24.00;;;;;;4972453;28;20005;-80
2021/11/30 06:35:36;;;;;;;;;;;5.80;22.50;;;;;;4964237;28;19988;-79
2021/11/30 06:38:02;;;;;;;;;;;5.80;21.80;;;;;;4956820;28;19964;-79
2021/11/30 06:40:27;;;;;;;;;;;5.80;21.30;;;;;;4964270;28;19910;-79
2021/11/30 06:42:53;;;;;;;;;;;5.90;21.70;;;;;;4974745;28;19914;-79
2021/11/30 06:45:18;;;;;;;;;;;5.90;22.40;;;;;;4976174;28;19918;-80
2021/11/30 06:47:44;;;;;;;;;;;6.00;22.60;;;;;;4976612;28;19925;-79
2021/11/30 06:50:10;;;;;;;;;;;6.10;20.70;;;;;;4972867;28;19925;-80
2021/11/30 06:52:38;;;;;;;;;;;6.20;18.20;;;;;;4974199;28;20338;-79
2021/11/30 06:55:04;;;;;;;;;;;6.20;15.90;;;;;;4975517;28;19918;-80
2021/11/30 06:57:29;;;;;;;;;;;6.20;15.10;;;;;;4974587;28;20009;-80
2021/11/30 06:59:59;;;;;;;;;;;6.20;15.60;;;;;;4974271;28;19953;-80
2021/11/30 07:02:25;;;;;;;;;;;6.20;16.70;;;;;;4972911;28;19914;-79
2021/11/30 07:04:53;;;;;;;;;;;6.20;17.50;;;;;;4975220;28;20391;-79
2021/11/30 07:07:38;;;;;;;;;;;6.20;19.20;;;;;;4966873;28;20437;-79
2021/11/30 07:10:10;;;;;;;;;;;6.20;20.50;;;;;;4968448;28;19937;-79
2021/11/30 07:15:05;;;;;;;;;;;6.20;20.80;;;;;;4973840;28;20422;-79
2021/11/30 07:17:34;;;;;;;;;;;6.20;21.20;;;;;;4992465;23;19949;-83
2021/11/30 07:20:00;;;;;;;;;;;6.20;22.50;;;;;;4979323;28;19918;-83
2021/11/30 07:22:25;;;;;;;;;;;6.20;23.30;;;;;;4988040;28;19948;-84
2021/11/30 07:24:51;;;;;;;;;;;6.20;23.70;;;;;;4991446;28;19921;-83
2021/11/30 07:27:16;;;;;;;;;;;6.20;24.00;;;;;;5000230;28;20060;-83
2021/11/30 07:29:42;;;;;;;;;;;6.20;24.30;;;;;;4981892;28;19910;-84
2021/11/30 07:32:08;;;;;;;;;;;6.30;24.10;;;;;;4995986;28;20279;-82
2021/11/30 07:34:34;;;;;;;;;;;6.30;24.00;;;;;;4997329;28;19972;-82
2021/11/30 07:36:59;;;;;;;;;;;6.30;24.40;;;;;;4998845;28;19913;-82
2021/11/30 07:39:25;;;;;;;;;;;6.30;24.70;;;;;;4995455;28;19910;-83
2021/11/30 07:41:50;;;;;;;;;;;6.30;24.60;;;;;;4989759;28;19922;-84
2021/11/30 07:44:16;;;;;;;;;;;6.40;24.30;;;;;;4997504;28;19910;-84
2021/11/30 07:46:41;;;;;;;;;;;6.40;24.10;;;;;;4995570;28;19921;-83
2021/11/30 07:49:07;;;;;;;;;;;6.40;23.50;;;;;;4998888;28;19929;-83
2021/11/30 07:51:32;;;;;;;;;;;6.40;22.40;;;;;;5019217;28;19916;-83
2021/11/30 07:53:59;;;;;;;;;;;6.50;20.90;;;;;;4993704;28;20362;-83
2021/11/30 07:56:25;;;;;;;;;;;6.50;19.80;;;;;;4995054;28;19972;-83
2021/11/30 07:58:50;;;;;;;;;;;6.50;19.30;;;;;;4992632;28;19913;-84
2021/11/30 08:01:16;;;;;;;;;;;6.60;19.50;;;;;;4990466;28;19916;-86
2021/11/30 08:03:43;;;;;;;;;;;6.60;19.70;;;;;;5001803;28;19913;-83
2021/11/30 08:06:09;;;;;;;;;;;6.60;19.90;;;;;;4994308;28;20004;-84
2021/11/30 08:08:36;;;;;;;;;;;6.60;19.40;;;;;;4984019;28;20143;-83
2021/11/30 08:11:02;;;;;;;;;;;6.70;19.50;;;;;;4997852;28;19953;-83
2021/11/30 08:13:28;;;;;;;;;;;6.70;19.00;;;;;;4999661;28;19920;-85
2021/11/30 08:15:53;;;;;;;;;;;6.70;18.40;;;;;;4989530;28;19914;-84
2021/11/30 08:18:19;;;;;;;;;;;6.80;17.90;;;;;;5001379;28;19971;-84
2021/11/30 08:20:44;;;;;;;;;;;6.80;17.30;;;;;;5000541;28;19921;-84
2021/11/30 08:23:12;;;;;;;;;;;6.80;17.60;;;;;;4997805;28;19914;-83
2021/11/30 08:25:38;;;;;;;;;;;6.80;18.20;;;;;;5003002;28;20541;-82
2021/11/30 08:28:04;;;;;;;;;;;6.80;17.50;;;;;;5002664;28;19960;-83
2021/11/30 08:30:29;;;;;;;;;;;6.80;17.90;;;;;;5000114;28;19921;-83
2021/11/30 08:32:55;;;;;;;;;;;6.90;18.10;;;;;;4992281;28;19910;-84
2021/11/30 08:35:20;;;;;;;;;;;6.90;18.30;;;;;;4995353;28;19914;-84
2021/11/30 08:37:46;;;;;;;;;;;6.90;19.00;;;;;;4992107;28;20354;-84
2021/11/30 08:40:12;;;;;;;;;;;6.90;20.10;;;;;;5002272;28;19996;-85
2021/11/30 08:42:38;;;;;;;;;;;7.00;20.60;;;;;;4993872;28;19925;-82
2021/11/30 08:45:04;;;;;;;;;;;7.00;21.20;;;;;;4993699;28;19914;-83
2021/11/30 08:47:30;;;;;;;;;;;7.10;21.60;;;;;;4988357;28;20362;-84
2021/11/30 08:49:55;;;;;;;;;;;7.10;22.20;;;;;;4998143;28;19914;-84
2021/11/30 08:52:25;;;;;;;;;;;7.10;22.20;;;;;;5002833;28;19939;-83
2021/11/30 08:54:52;;;;;;;;;;;7.10;22.40;;;;;;5002375;28;19921;-83
2021/11/30 08:57:19;;;;;;;;;;;7.20;22.70;;;;;;4985452;28;19926;-83
2021/11/30 08:59:44;;;;;;;;;;;7.20;22.00;;;;;;4997606;28;19914;-84
2021/11/30 09:02:10;;;;;;;;;;;7.30;21.60;;;;;;4992727;28;19914;-84
2021/11/30 09:04:35;;;;;;;;;;;7.30;21.30;;;;;;5000377;28;19921;-84
2021/11/30 09:07:01;;;;;;;;;;;7.40;21.00;;;;;;4996568;28;19913;-84
2021/11/30 09:09:26;;;;;;;;;;;7.40;20.50;;;;;;4993371;28;19922;-84
2021/11/30 09:11:52;;;;;;;;;;;7.40;20.40;;;;;;5001231;28;19914;-83
2021/11/30 09:14:21;;;;;;;;;;;7.40;19.90;;;;;;5011457;28;20052;-82
2021/11/30 09:16:48;;;;;;;;;;;7.50;19.70;;;;;;5004436;28;20286;-82
2021/11/30 09:19:13;;;;;;;;;;;7.50;19.10;;;;;;4999357;28;19924;-82
2021/11/30 09:21:39;;;;;;;;;;;7.50;18.70;;;;;;4986549;28;19914;-82
2021/11/30 09:24:05;;;;;;;;;;;7.50;17.10;;;;;;5000969;28;19909;-83
2021/11/30 09:26:30;;;;;;;;;;;7.50;16.30;;;;;;4993824;28;20275;-82
2021/11/30 09:28:56;;;;;;;;;;;7.50;15.60;;;;;;4994859;28;19976;-82
2021/11/30 09:31:21;;;;;;;;;;;7.60;16.50;;;;;;4995494;28;20005;-82
2021/11/30 09:33:47;;;;;;;;;;;7.60;16.80;;;;;;4997986;28;19937;-81
2021/11/30 09:36:13;;;;;;;;;;;7.70;15.80;;;;;;5008562;28;19964;-82
2021/11/30 09:38:39;;;;;;;;;;;7.70;14.70;;;;;;4999786;28;19949;-82
2021/11/30 09:41:05;;;;;;;;;;;7.70;13.80;;;;;;4988337;28;19918;-82
2021/11/30 09:43:32;;;;;;;;;;;7.70;11.90;;;;;;4987288;28;19921;-82
2021/11/30 09:46:01;;;;;;;;;;;7.70;11.10;;;;;;4988416;28;19921;-82
2021/11/30 09:48:28;;;;;;;;;;;7.80;10.40;;;;;;5004190;28;20032;-83
2021/11/30 09:50:54;;;;;;;;;;;7.80;10.70;;;;;;4987525;28;19976;-82
2021/11/30 09:53:19;;;;;;;;;;;7.80;9.70;;;;;;5004915;28;19913;-82
2021/11/30 09:55:47;;;;;;;;;;;7.90;8.30;;;;;;5004401;28;20433;-83
2021/11/30 09:58:13;;;;;;;;;;;7.90;7.90;;;;;;4994624;28;19918;-82
2021/11/30 10:00:38;;;;;;;;;;;7.90;7.70;;;;;;4997434;28;19941;-83
2021/11/30 10:03:04;;;;;;;;;;;8.00;7.30;;;;;;5006746;28;20485;-83
2021/11/30 10:05:30;;;;;;;;;;;8.00;5.90;;;;;;5013709;28;19910;-83
2021/11/30 10:07:56;;;;;;;;;;;8.00;4.70;;;;;;5004738;28;19970;-84
2021/11/30 10:10:24;;;;;;;;;;;8.00;4.10;;;;;;5006803;28;19936;-83
2021/11/30 10:12:59;;;;;;;;;;;8.10;3.40;;;;;;5009888;28;20127;-83
2021/11/30 10:15:24;;;;;;;;;;;8.10;3.60;;;;;;5007289;28;19918;-83
2021/11/30 10:17:50;;;;;;;;;;;8.10;2.50;;;;;;5002305;28;19926;-83
2021/11/30 10:20:16;;;;;;;;;;;8.10;2.60;;;;;;5014363;28;19973;-84
2021/11/30 10:22:41;;;;;;;;;;;8.20;2.40;;;;;;5001831;28;20047;-84
2021/11/30 10:25:08;;;;;;;;;;;8.20;1.70;;;;;;5005145;28;19918;-83
2021/11/30 10:27:34;;;;;;;;;;;8.20;2.30;;;;;;5008776;28;19932;-83
2021/11/30 10:30:08;;;;;;;;;;;8.20;2.40;;;;;;5010842;28;20378;-83
2021/11/30 10:32:39;;;;;;;;;;;8.30;4.30;;;;;;5004779;28;20012;-83
2021/11/30 10:35:05;;;;;;;;;;;8.30;5.70;;;;;;5002804;28;19913;-83
2021/11/30 10:37:30;;;;;;;;;;;8.30;6.70;;;;;;5010638;28;19934;-84
2021/11/30 10:40:05;;;;;;;;;;;8.40;7.50;;;;;;4996222;28;19921;-83
2021/11/30 10:42:31;;;;;;;;;;;8.40;9.40;;;;;;5008076;28;19918;-83
2021/11/30 10:44:57;;;;;;;;;;;8.40;11.30;;;;;;5010131;28;20401;-84
2021/11/30 10:47:24;;;;;;;;;;;8.40;12.70;;;;;;5017198;28;19953;-84
2021/11/30 10:49:54;;;;;;;;;;;8.40;13.90;;;;;;5008512;28;20536;-84
2021/11/30 10:52:23;;;;;;;;;;;8.40;15.10;;;;;;4993702;28;19914;-83
2021/11/30 10:54:50;;;;;;;;;;;8.40;15.80;;;;;;4992606;28;19964;-83
2021/11/30 10:57:15;;;;;;;;;;;8.50;16.50;;;;;;4998378;28;19936;-83
2021/11/30 10:59:41;;;;;;;;;;;8.50;17.10;;;;;;5007771;28;19976;-83
2021/11/30 11:02:06;;;;;;;;;;;8.50;17.10;;;;;;5007905;28;19926;-84
2021/11/30 11:04:35;;;;;;;;;;;8.50;17.10;;;;;;5003535;28;19985;-84
2021/11/30 11:07:19;;;;;;;;;;;8.50;16.70;;;;;;5008828;28;19920;-83
2021/11/30 11:09:52;;;;;;;;;;;8.60;16.40;;;;;;4995863;28;19918;-83
2021/11/30 11:12:25;;;;;;;;;;;8.60;16.90;;;;;;5003162;28;19968;-83
2021/11/30 11:14:50;;;;;;;;;;;8.60;17.00;;;;;;4998344;28;19914;-83
2021/11/30 11:17:27;;;;;;;;;;;8.60;17.80;;;;;;5017382;28;19918;-83
2021/11/30 11:19:52;;;;;;;;;;;8.60;17.60;;;;;;5003655;28;20286;-83
2021/11/30 11:22:19;;;;;;;;;;;8.60;17.60;;;;;;5005324;28;19920;-83
2021/11/30 11:24:50;;;;;;;;;;;8.70;16.90;;;;;;5001866;28;19940;-83
2021/11/30 11:27:16;;;;;;;;;;;8.70;15.80;;;;;;4992758;28;19963;-83
2021/11/30 11:29:43;;;;;;;;;;;8.70;15.30;;;;;;5002392;28;20329;-83
2021/11/30 11:32:09;;;;;;;;;;;8.70;15.10;;;;;;4991322;28;19914;-83
2021/11/30 11:34:35;;;;;;;;;;;8.70;14.10;;;;;;4996530;28;19914;-82
2021/11/30 11:37:03;;;;;;;;;;;8.70;14.20;;;;;;4984574;28;19909;-82
2021/11/30 11:39:29;;;;;;;;;;;8.70;14.70;;;;;;4991109;28;20374;-82
2021/11/30 11:41:56;;;;;;;;;;;8.70;15.50;;;;;;4988577;28;19922;-83
2021/11/30 11:44:22;;;;;;;;;;;8.70;15.80;;;;;;4996744;28;20392;-82
2021/11/30 11:46:48;;;;;;;;;;;8.70;16.90;;;;;;4988598;28;20001;-83
2021/11/30 11:49:18;;;;;;;;;;;8.70;17.20;;;;;;4980638;28;20008;-83
2021/11/30 11:51:45;;;;;;;;;;;8.70;18.60;;;;;;5006271;28;19913;-82
2021/11/30 11:54:32;;;;;;;;;;;8.70;19.70;;;;;;5011582;28;19957;-82
2021/11/30 11:57:00;;;;;;;;;;;8.80;19.50;;;;;;4989454;28;19915;-83
2021/11/30 11:59:34;;;;;;;;;;;8.80;19.50;;;;;;4992741;28;19937;-83
2021/11/30 12:02:12;;;;;;;;;;;8.80;18.60;;;;;;4999647;28;19939;-81
2021/11/30 12:04:42;;;;;;;;;;;8.80;19.30;;;;;;5009738;28;19957;-82
2021/11/30 12:07:07;;;;;;;;;;;8.90;20.00;;;;;;5006767;28;19917;-82
2021/11/30 12:09:33;;;;;;;;;;;8.90;20.10;;;;;;5001962;28;19917;-82
2021/11/30 12:12:01;;;;;;;;;;;8.90;20.30;;;;;;4996552;28;20456;-82
2021/11/30 12:14:34;;;;;;;;;;;8.90;20.50;;;;;;4994098;28;20365;-82
2021/11/30 12:17:15;;;;;;;;;;;8.90;20.50;;;;;;5014463;28;19913;-83
2021/11/30 12:19:40;;;;;;;;;;;8.90;20.20;;;;;;5006642;28;19921;-82
2021/11/30 12:22:06;;;;;;;;;;;8.90;20.90;;;;;;5004906;28;19992;-82
2021/11/30 12:24:33;;;;;;;;;;;8.90;21.60;;;;;;4989251;28;20409;-82
2021/11/30 12:26:59;;;;;;;;;;;8.90;20.50;;;;;;5004498;28;19915;-84
2021/11/30 12:29:30;;;;;;;;;;;9.00;20.00;;;;;;5003079;28;20397;-83
2021/11/30 12:31:56;;;;;;;;;;;9.00;18.90;;;;;;5002451;28;19951;-82
2021/11/30 12:34:35;;;;;;;;;;;9.00;18.20;;;;;;5014477;28;20417;-82
2021/11/30 12:37:04;;;;;;;;;;;9.00;18.10;;;;;;5003767;28;20279;-82
2021/11/30 12:39:49;;;;;;;;;;;9.00;17.20;;;;;;4988096;28;19922;-83
2021/11/30 12:42:15;;;;;;;;;;;9.00;17.10;;;;;;4996062;28;19918;-83
2021/11/30 12:44:41;;;;;;;;;;;9.00;16.20;;;;;;4997536;28;20204;-82
2021/11/30 12:47:17;;;;;;;;;;;9.00;16.20;;;;;;4999498;28;20028;-83
2021/11/30 12:49:44;;;;;;;;;;;9.00;16.30;;;;;;5003202;28;19925;-83
2021/11/30 12:52:09;;;;;;;;;;;9.10;16.30;;;;;;4992031;28;19921;-84
2021/11/30 12:54:36;;;;;;;;;;;9.10;16.20;;;;;;5000191;28;20434;-82
2021/11/30 12:57:02;;;;;;;;;;;9.10;15.90;;;;;;4995522;28;19924;-83
2021/11/30 12:59:37;;;;;;;;;;;9.10;15.60;;;;;;5000245;28;19946;-84
2021/11/30 13:02:22;;;;;;;;;;;9.10;15.30;;;;;;4991794;28;20493;-83
2021/11/30 13:04:54;;;;;;;;;;;9.10;16.00;;;;;;4993405;28;19968;-81
2021/11/30 13:07:21;;;;;;;;;;;9.10;15.60;;;;;;5006941;28;19914;-82
2021/11/30 13:09:47;;;;;;;;;;;9.10;14.00;;;;;;4994288;28;19928;-82
2021/11/30 13:12:15;;;;;;;;;;;9.10;13.50;;;;;;4992290;28;19932;-84
2021/11/30 13:14:41;;;;;;;;;;;9.20;11.60;;;;;;5005408;28;19913;-83
2021/11/30 13:17:07;;;;;;;;;;;9.20;10.50;;;;;;5005578;28;19933;-83
2021/11/30 13:19:37;;;;;;;;;;;9.20;10.00;;;;;;5003207;28;20279;-83
2021/11/30 13:22:03;;;;;;;;;;;9.20;8.70;;;;;;4998211;28;19918;-84
2021/11/30 13:24:33;;;;;;;;;;;9.20;7.50;;;;;;4991757;28;19945;-83
2021/11/30 13:27:13;;;;;;;;;;;9.30;5.80;;;;;;5014454;28;19953;-83
2021/11/30 13:29:39;;;;;;;;;;;9.30;4.20;;;;;;4989432;28;19918;-84
2021/11/30 13:32:06;;;;;;;;;;;9.30;3.20;;;;;;4989312;28;19976;-83
2021/11/30 13:34:31;;;;;;;;;;;9.30;2.40;;;;;;4998074;28;19919;-83
2021/11/30 13:36:57;;;;;;;;;;;9.40;1.20;;;;;;5005087;28;19917;-83
2021/11/30 13:39:23;;;;;;;;;;;9.40;1.20;;;;;;5005820;28;19921;-83
2021/11/30 13:41:48;;;;;;;;;;;9.40;2.10;;;;;;4987109;28;19910;-82
2021/11/30 13:44:13;;;;;;;;;;;9.40;2.50;;;;;;4987582;28;19924;-84
2021/11/30 13:46:41;;;;;;;;;;;9.40;1.70;;;;;;4995735;28;20390;-81
2021/11/30 13:49:07;;;;;;;;;;;9.40;2.30;;;;;;4997454;28;19924;-83
2021/11/30 13:51:35;;;;;;;;;;;9.40;3.60;;;;;;4998825;28;20274;-83
2021/11/30 13:54:05;;;;;;;;;;;9.40;2.80;;;;;;5009443;28;19949;-82
2021/11/30 13:56:34;;;;;;;;;;;9.30;3.50;;;;;;4993086;28;20297;-81
2021/11/30 14:01:54;;;;;;;;;;;9.30;4.80;;;;;;4990382;28;19928;-83
2021/11/30 14:04:22;;;;;;;;;;;9.30;4.20;;;;;;4998909;28;20289;-83
2021/11/30 14:06:56;;;;;;;;;;;9.30;4.60;;;;;;5000308;28;19973;-83
2021/11/30 14:09:27;;;;;;;;;;;9.40;5.10;;;;;;4991501;28;19924;-83
2021/11/30 14:12:04;;;;;;;;;;;9.30;4.00;;;;;;5000950;28;19953;-83
2021/11/30 14:14:30;;;;;;;;;;;9.40;3.40;;;;;;5003349;28;19959;-83
2021/11/30 14:17:00;;;;;;;;;;;9.40;2.50;;;;;;5006266;28;19913;-83
2021/11/30 14:19:34;;;;;;;;;;;9.40;2.10;;;;;;5003141;28;19936;-83
2021/11/30 14:22:00;;;;;;;;;;;9.40;2.60;;;;;;5015532;28;20475;-83
2021/11/30 14:24:26;;;;;;;;;;;9.40;3.80;;;;;;5001909;28;20534;-83
2021/11/30 14:26:52;;;;;;;;;;;9.40;2.80;;;;;;4994856;28;19917;-84
2021/11/30 14:29:22;;;;;;;;;;;9.40;3.00;;;;;;5003530;28;19918;-83
2021/11/30 14:31:59;;;;;;;;;;;9.40;4.70;;;;;;5007180;28;19996;-83
2021/11/30 14:34:32;;;;;;;;;;;9.40;6.50;;;;;;5000662;28;19913;-83
2021/11/30 14:37:16;;;;;;;;;;;9.40;8.20;;;;;;5006976;28;20337;-83
2021/11/30 14:39:41;;;;;;;;;;;9.40;10.00;;;;;;5012270;28;19914;-84
2021/11/30 14:42:23;;;;;;;;;;;9.40;10.90;;;;;;5007070;28;20032;-85
2021/11/30 14:44:48;;;;;;;;;;;9.40;12.10;;;;;;4998791;28;19914;-83